createdAt,value
2023-05-26T00:00:57.943Z,100.00
2023-05-26T00:04:01.671Z,100.00
2023-05-26T00:07:03.638Z,100.00
2023-05-26T00:10:06.409Z,100.00
2023-05-26T00:13:08.496Z,100.00
2023-05-26T00:16:10.464Z,100.00
2023-05-26T00:19:15.690Z,100.00
2023-05-26T00:22:17.686Z,100.00
2023-05-26T00:25:19.613Z,100.00
2023-05-26T00:28:21.449Z,100.00
2023-05-26T00:31:23.456Z,100.00
2023-05-26T00:34:26.584Z,100.00
2023-05-26T00:37:28.396Z,100.00
2023-05-26T00:40:30.444Z,100.00
2023-05-26T00:43:33.409Z,100.00
2023-05-26T00:46:35.695Z,100.00
2023-05-26T00:49:39.970Z,100.00
2023-05-26T00:52:42.662Z,100.00
2023-05-26T00:55:45.792Z,100.00
2023-05-26T00:58:47.891Z,100.00
2023-05-26T01:01:49.940Z,100.00
2023-05-26T01:04:53.229Z,100.00
2023-05-26T01:07:55.209Z,100.00
2023-05-26T01:11:03.589Z,100.00
2023-05-26T01:14:11.320Z,100.00
2023-05-26T01:17:17.033Z,100.00
2023-05-26T01:20:26.717Z,100.00
2023-05-26T01:23:38.950Z,100.00
2023-05-26T01:27:03.745Z,100.00
2023-05-26T01:30:08.758Z,100.00
2023-05-26T01:33:10.691Z,100.00
2023-05-26T01:36:14.249Z,100.00
2023-05-26T01:39:16.234Z,100.00
2023-05-26T01:45:42.319Z,100.00
2023-05-26T01:48:47.169Z,100.00
2023-05-26T01:51:52.189Z,100.00
2023-05-26T01:54:58.716Z,100.00
2023-05-26T01:58:02.685Z,100.00
2023-05-26T02:01:06.373Z,100.00
2023-05-26T02:04:10.498Z,100.00
2023-05-26T02:07:14.605Z,100.00
2023-05-26T02:10:16.661Z,100.00
2023-05-26T02:13:18.938Z,100.00
2023-05-26T02:16:24.515Z,100.00
2023-05-26T02:19:26.691Z,100.00
2023-05-26T02:22:28.693Z,100.00
2023-05-26T02:25:32.719Z,98.97
2023-05-26T02:28:37.126Z,100.00
2023-05-26T02:31:43.145Z,100.00
2023-05-26T02:34:47.678Z,100.00
2023-05-26T02:37:49.705Z,100.00
2023-05-26T02:40:51.952Z,100.00
2023-05-26T02:43:53.724Z,100.00
2023-05-26T02:46:57.389Z,100.00
2023-05-26T02:49:59.909Z,100.00
2023-05-26T02:53:02.235Z,100.00
2023-05-26T02:56:05.550Z,100.00
2023-05-26T02:59:08.254Z,100.00
2023-05-26T03:02:11.965Z,100.00
2023-05-26T03:05:13.982Z,100.00
2023-05-26T03:08:15.878Z,100.00
2023-05-26T03:11:17.930Z,100.00
2023-05-26T03:14:19.976Z,100.00
2023-05-26T03:17:23.094Z,100.00
2023-05-26T03:20:26.142Z,100.00
2023-05-26T03:23:28.266Z,100.00
2023-05-26T03:26:30.550Z,100.00
2023-05-26T03:29:32.741Z,100.00
2023-05-26T03:32:38.548Z,100.00
2023-05-26T03:35:40.518Z,100.00
2023-05-26T03:38:42.246Z,100.00
2023-05-26T03:41:44.230Z,100.00
2023-05-26T03:44:47.002Z,100.00
2023-05-26T03:47:50.685Z,100.00
2023-05-26T03:50:53.490Z,100.00
2023-05-26T03:53:55.227Z,100.00
2023-05-26T03:56:57.036Z,100.00
2023-05-26T03:59:58.945Z,100.00
2023-05-26T04:03:02.587Z,100.00
2023-05-26T04:06:04.993Z,100.00
2023-05-26T04:09:09.078Z,100.00
2023-05-26T04:12:13.496Z,100.00
2023-05-26T04:15:15.617Z,100.00
2023-05-26T04:18:19.033Z,100.00
2023-05-26T04:21:23.261Z,100.00
2023-05-26T04:24:27.722Z,100.00
2023-05-26T04:27:30.041Z,100.00
2023-05-26T04:30:32.336Z,100.00
2023-05-26T04:33:38.715Z,100.00
2023-05-26T04:36:41.196Z,100.00
2023-05-26T04:39:42.913Z,100.00
2023-05-26T04:42:45.083Z,100.00
2023-05-26T04:45:46.993Z,100.00
2023-05-26T04:48:50.720Z,100.00
2023-05-26T04:51:59.505Z,100.00
2023-05-26T04:55:02.420Z,100.00
2023-05-26T04:58:05.203Z,100.00
2023-05-26T05:01:08.116Z,100.00
2023-05-26T05:04:15.705Z,100.00
2023-05-26T05:07:18.277Z,100.00
2023-05-26T05:10:21.408Z,100.00
2023-05-26T05:13:26.266Z,100.00
2023-05-26T05:16:28.079Z,100.00
2023-05-26T05:19:31.627Z,100.00
2023-05-26T05:22:33.561Z,100.00
2023-05-26T05:25:35.336Z,100.00
2023-05-26T05:28:37.191Z,100.00
2023-05-26T05:31:39.108Z,100.00
2023-05-26T05:34:44.810Z,100.00
2023-05-26T05:37:46.600Z,100.00
2023-05-26T05:40:48.837Z,100.00
2023-05-26T05:43:50.915Z,100.00
2023-05-26T05:46:53.290Z,100.00
2023-05-26T05:49:57.662Z,100.00
2023-05-26T05:52:59.818Z,100.00
2023-05-26T05:56:04.376Z,100.00
2023-05-26T05:59:07.003Z,100.00
2023-05-26T06:02:09.162Z,100.00
2023-05-26T06:05:14.102Z,100.00
2023-05-26T06:08:16.281Z,100.00
2023-05-26T06:11:18.579Z,100.00
2023-05-26T06:14:21.484Z,100.00
2023-05-26T06:17:24.374Z,100.00
2023-05-26T06:20:28.260Z,100.00
2023-05-26T06:23:32.365Z,100.00
2023-05-26T06:26:34.663Z,100.00
2023-05-26T06:29:36.805Z,100.00
2023-05-26T06:32:39.075Z,100.00
2023-05-26T06:35:42.533Z,100.00
2023-05-26T06:38:46.771Z,100.00
2023-05-26T06:41:48.751Z,100.00
2023-05-26T06:44:53.550Z,100.00
2023-05-26T06:47:57.180Z,100.00
2023-05-26T06:51:00.572Z,100.00
2023-05-26T06:54:02.570Z,100.00
2023-05-26T06:57:04.941Z,100.00
2023-05-26T07:00:09.634Z,100.00
2023-05-26T07:03:11.697Z,100.00
2023-05-26T07:06:17.353Z,100.00
2023-05-26T07:09:19.402Z,100.00
2023-05-26T07:12:22.735Z,100.00
2023-05-26T07:15:24.743Z,100.00
2023-05-26T07:18:27.967Z,100.00
2023-05-26T07:21:33.193Z,100.00
2023-05-26T07:24:38.631Z,100.00
2023-05-26T07:27:40.618Z,100.00
2023-05-26T07:30:42.701Z,100.00
2023-05-26T07:33:46.204Z,100.00
2023-05-26T07:36:51.657Z,100.00
2023-05-26T07:39:53.684Z,100.00
2023-05-26T07:42:57.932Z,100.00
2023-05-26T07:46:00.550Z,100.00
2023-05-26T07:49:02.361Z,100.00
2023-05-26T07:52:06.052Z,100.00
2023-05-26T07:55:11.309Z,100.00
2023-05-26T07:58:13.658Z,100.00
2023-05-26T08:01:15.700Z,100.00
2023-05-26T08:04:18.277Z,100.00
2023-05-26T08:07:22.605Z,100.00
2023-05-26T08:10:26.774Z,100.00
2023-05-26T08:13:29.036Z,100.00
2023-05-26T08:16:31.343Z,100.00
2023-05-26T08:19:35.945Z,100.00
2023-05-26T08:22:39.426Z,100.00
2023-05-26T08:25:43.917Z,100.00
2023-05-26T08:28:45.837Z,100.00
2023-05-26T08:31:48.549Z,100.00
2023-05-26T08:34:50.517Z,100.00
2023-05-26T08:37:53.677Z,100.00
2023-05-26T08:40:58.097Z,100.00
2023-05-26T08:44:07.604Z,100.00
2023-05-26T08:47:11.435Z,100.00
2023-05-26T08:50:14.535Z,100.00
2023-05-26T08:53:18.524Z,100.00
2023-05-26T08:56:21.090Z,100.00
2023-05-26T08:59:23.613Z,100.00
2023-05-26T09:02:25.489Z,100.00
2023-05-26T09:05:27.351Z,100.00
2023-05-26T09:08:30.787Z,100.00
2023-05-26T09:11:32.763Z,100.00
2023-05-26T09:14:37.379Z,99.40
2023-05-26T09:17:42.623Z,100.00
2023-05-26T09:20:46.250Z,100.00
2023-05-26T09:23:56.398Z,100.00
2023-05-26T09:27:00.533Z,98.31
2023-05-26T09:30:02.361Z,96.24
2023-05-26T09:33:05.682Z,94.17
2023-05-26T09:36:08.040Z,98.11
2023-05-26T09:39:14.257Z,98.00
2023-05-26T09:45:19.819Z,99.06
2023-05-26T09:48:21.642Z,94.85
2023-05-26T09:51:35.310Z,100.00
2023-05-26T09:54:42.052Z,99.43
2023-05-26T09:57:46.141Z,91.25
2023-05-26T10:00:48.674Z,92.13
2023-05-26T10:03:51.924Z,94.77
2023-05-26T10:06:55.348Z,91.45
2023-05-26T10:10:00.078Z,100.00
2023-05-26T10:13:02.014Z,90.72
2023-05-26T10:16:05.265Z,93.29
2023-05-26T10:19:08.334Z,92.67
2023-05-26T10:22:14.912Z,98.33
2023-05-26T10:25:23.437Z,95.06
2023-05-26T10:28:30.605Z,94.54
2023-05-26T10:31:34.794Z,90.48
2023-05-26T10:34:40.994Z,92.29
2023-05-26T10:37:49.229Z,91.51
2023-05-26T10:40:53.035Z,89.96
2023-05-26T10:43:55.105Z,88.55
2023-05-26T10:47:05.193Z,86.27
2023-05-26T10:50:07.517Z,85.96
2023-05-26T10:53:21.793Z,89.42
2023-05-26T10:56:35.938Z,90.14
2023-05-26T10:59:37.809Z,93.36
2023-05-26T11:02:40.727Z,81.85
2023-05-26T11:05:55.572Z,80.32
2023-05-26T11:09:07.081Z,84.64
2023-05-26T11:12:11.150Z,80.28
2023-05-26T11:15:32.139Z,75.67
2023-05-26T11:18:34.030Z,79.03
2023-05-26T11:21:37.147Z,83.29
2023-05-26T11:24:39.239Z,75.38
2023-05-26T11:27:47.584Z,81.48
2023-05-26T11:30:49.828Z,84.80
2023-05-26T11:33:51.790Z,82.11
2023-05-26T11:36:56.834Z,79.01
2023-05-26T11:39:59.077Z,79.17
2023-05-26T11:43:04.641Z,80.32
2023-05-26T11:46:11.534Z,81.42
2023-05-26T11:49:14.739Z,82.21
2023-05-26T11:52:19.452Z,82.43
2023-05-26T11:55:21.297Z,79.39
2023-05-26T11:58:24.884Z,76.67
2023-05-26T12:01:27.648Z,77.93
2023-05-26T12:04:31.820Z,79.07
2023-05-26T12:07:33.811Z,75.16
2023-05-26T12:10:37.477Z,75.70
2023-05-26T12:13:43.294Z,76.43
2023-05-26T12:16:47.304Z,78.79
2023-05-26T12:19:51.906Z,80.23
2023-05-26T12:22:54.534Z,76.35
2023-05-26T12:25:56.606Z,80.55
2023-05-26T12:29:12.796Z,76.82
2023-05-26T12:32:17.044Z,75.12
2023-05-26T12:35:19.465Z,72.55
2023-05-26T12:38:21.406Z,75.05
2023-05-26T12:41:23.184Z,75.51
2023-05-26T12:44:29.454Z,70.96
2023-05-26T12:47:31.875Z,68.81
2023-05-26T12:50:35.567Z,70.34
2023-05-26T12:53:39.583Z,70.97
2023-05-26T12:56:42.464Z,75.06
2023-05-26T12:59:45.896Z,75.10
2023-05-26T13:02:47.752Z,78.15
2023-05-26T13:05:50.041Z,73.41
2023-05-26T13:08:54.231Z,74.94
2023-05-26T13:11:56.478Z,74.95
2023-05-26T13:14:59.788Z,76.27
2023-05-26T13:18:01.838Z,76.22
2023-05-26T13:21:04.261Z,75.27
2023-05-26T13:24:06.537Z,75.56
2023-05-26T13:27:11.351Z,73.32
2023-05-26T13:30:15.077Z,71.58
2023-05-26T13:33:17.596Z,74.34
2023-05-26T13:36:20.036Z,75.13
2023-05-26T13:39:22.079Z,73.33
2023-05-26T13:42:24.025Z,75.08
2023-05-26T13:45:30.393Z,71.78
2023-05-26T13:48:32.712Z,73.87
2023-05-26T13:51:35.324Z,70.99
2023-05-26T13:54:37.343Z,73.31
2023-05-26T13:57:39.372Z,71.70
2023-05-26T14:00:45.487Z,70.80
2023-05-26T14:03:48.053Z,71.96
2023-05-26T14:06:51.766Z,69.25
2023-05-26T14:09:54.298Z,73.93
2023-05-26T14:12:56.358Z,69.11
2023-05-26T14:16:00.138Z,68.23
2023-05-26T14:19:05.995Z,66.35
2023-05-26T14:22:21.864Z,68.25
2023-05-26T14:25:26.480Z,72.51
2023-05-26T14:28:28.219Z,72.17
2023-05-26T14:31:31.926Z,68.49
2023-05-26T14:34:34.948Z,66.22
2023-05-26T14:37:37.559Z,64.96
2023-05-26T14:40:39.367Z,69.98
2023-05-26T14:50:00.562Z,67.07
2023-05-26T14:53:02.640Z,65.19
2023-05-26T14:56:05.264Z,62.34
2023-05-26T14:59:07.007Z,64.58
2023-05-26T15:02:10.235Z,63.02
2023-05-26T15:05:12.478Z,65.01
2023-05-26T15:08:14.842Z,55.93
2023-05-26T15:11:16.590Z,55.37
2023-05-26T15:14:18.374Z,51.01
2023-05-26T15:17:21.465Z,52.76
2023-05-26T15:20:24.893Z,55.47
2023-05-26T15:23:27.198Z,55.17
2023-05-26T15:26:29.285Z,56.18
2023-05-26T15:29:31.040Z,55.65
2023-05-26T15:32:37.637Z,57.42
2023-05-26T15:35:39.717Z,54.10
2023-05-26T15:38:44.761Z,53.80
2023-05-26T15:41:50.364Z,56.40
2023-05-26T15:44:52.469Z,58.56
2023-05-26T15:48:00.163Z,51.72
2023-05-26T15:51:02.045Z,52.38
2023-05-26T15:54:04.059Z,53.90
2023-05-26T15:57:20.857Z,56.19
2023-05-26T16:00:25.056Z,51.99
2023-05-26T16:03:31.507Z,52.32
2023-05-26T16:06:33.968Z,52.98
2023-05-26T16:09:36.075Z,52.49
2023-05-26T16:12:38.298Z,52.07
2023-05-26T16:15:42.306Z,52.36
2023-05-26T16:18:45.682Z,52.69
2023-05-26T16:21:47.826Z,52.19
2023-05-26T16:24:49.774Z,49.37
2023-05-26T16:27:51.561Z,50.80
2023-05-26T16:30:56.123Z,50.70
2023-05-26T16:33:59.767Z,49.47
2023-05-26T16:37:01.508Z,49.53
2023-05-26T16:40:06.387Z,48.24
2023-05-26T16:43:08.969Z,46.41
2023-05-26T16:46:12.147Z,48.06
2023-05-26T16:49:17.870Z,49.36
2023-05-26T16:52:19.630Z,49.46
2023-05-26T16:55:22.883Z,49.64
2023-05-26T16:58:24.664Z,50.11
2023-05-26T17:01:26.773Z,48.13
2023-05-26T17:04:30.276Z,46.00
2023-05-26T17:07:32.479Z,46.17
2023-05-26T17:10:37.092Z,45.23
2023-05-26T17:13:39.551Z,45.88
2023-05-26T17:16:42.016Z,47.21
2023-05-26T17:19:46.644Z,45.59
2023-05-26T17:22:48.833Z,47.87
2023-05-26T17:25:52.376Z,48.22
2023-05-26T17:28:56.531Z,47.90
2023-05-26T17:31:58.564Z,47.78
2023-05-26T17:35:02.714Z,49.51
2023-05-26T17:38:04.619Z,49.68
2023-05-26T17:41:07.417Z,51.39
2023-05-26T17:44:12.164Z,52.20
2023-05-26T17:47:14.720Z,52.05
2023-05-26T17:50:21.147Z,51.77
2023-05-26T17:53:24.390Z,53.51
2023-05-26T17:56:26.168Z,55.45
2023-05-26T17:59:29.870Z,56.21
2023-05-26T18:02:32.700Z,55.48
2023-05-26T18:05:36.480Z,57.05
2023-05-26T18:08:38.290Z,57.29
2023-05-26T18:11:41.307Z,55.95
2023-05-26T18:14:43.058Z,57.16
2023-05-26T18:17:45.143Z,59.50
2023-05-26T18:20:48.683Z,63.14
2023-05-26T18:23:51.095Z,64.92
2023-05-26T18:27:00.314Z,68.60
2023-05-26T18:30:02.831Z,70.82
2023-05-26T18:33:06.320Z,71.21
2023-05-26T18:36:09.719Z,75.60
2023-05-26T18:39:13.817Z,77.79
2023-05-26T18:42:15.766Z,80.93
2023-05-26T18:45:17.601Z,85.62
2023-05-26T18:48:19.506Z,91.08
2023-05-26T18:51:23.213Z,91.66
2023-05-26T18:54:26.308Z,92.96
2023-05-26T18:57:29.598Z,94.16
2023-05-26T19:00:32.012Z,95.59
2023-05-26T19:03:33.924Z,97.30
2023-05-26T19:06:38.221Z,100.00
2023-05-26T19:09:40.005Z,100.00
2023-05-26T19:12:42.050Z,100.00
2023-05-26T19:15:45.243Z,100.00
2023-05-26T19:18:47.091Z,100.00
2023-05-26T19:21:50.529Z,96.49
2023-05-26T19:24:55.135Z,99.08
2023-05-26T19:27:57.370Z,97.88
2023-05-26T19:30:59.404Z,86.80
2023-05-26T19:34:02.088Z,80.15
2023-05-26T19:37:06.189Z,76.87
2023-05-26T19:40:09.575Z,75.19
2023-05-26T19:43:13.560Z,72.43
2023-05-26T19:46:19.520Z,71.15
2023-05-26T19:49:21.882Z,71.28
2023-05-26T19:52:26.516Z,70.32
2023-05-26T19:55:31.586Z,69.79
2023-05-26T19:58:33.871Z,68.56
2023-05-26T20:01:36.556Z,69.09
2023-05-26T20:04:38.927Z,68.90
2023-05-26T20:07:42.499Z,68.72
2023-05-26T20:10:44.506Z,68.26
2023-05-26T20:13:46.547Z,68.67
2023-05-26T20:16:48.772Z,68.36
2023-05-26T20:20:10.899Z,69.74
2023-05-26T20:23:17.769Z,70.58
2023-05-26T20:26:20.335Z,72.43
2023-05-26T20:29:22.188Z,71.79
2023-05-26T20:32:24.963Z,71.57
2023-05-26T20:35:27.205Z,72.56
2023-05-26T20:38:32.602Z,72.46
2023-05-26T20:41:34.737Z,72.15
2023-05-26T20:44:38.635Z,73.45
2023-05-26T20:47:41.914Z,73.28
2023-05-26T20:50:44.213Z,74.38
2023-05-26T20:53:50.437Z,76.07
2023-05-26T20:56:52.407Z,75.12
2023-05-26T20:59:56.414Z,78.05
2023-05-26T21:02:59.238Z,75.52
2023-05-26T21:06:03.666Z,75.76
2023-05-26T21:09:07.472Z,77.00
2023-05-26T21:12:11.351Z,75.89
2023-05-26T21:15:13.376Z,77.69
2023-05-26T21:18:15.359Z,77.16
2023-05-26T21:21:17.800Z,76.87
2023-05-26T21:24:22.698Z,74.99
2023-05-26T21:27:24.664Z,76.56
2023-05-26T21:30:29.232Z,76.88
2023-05-26T21:33:32.354Z,76.33
2023-05-26T21:36:34.163Z,75.87
2023-05-26T21:39:38.332Z,78.31
2023-05-26T21:42:42.091Z,75.99
2023-05-26T21:45:44.109Z,77.12
2023-05-26T21:48:48.189Z,74.94
2023-05-26T21:51:50.248Z,74.10
2023-05-26T21:54:53.790Z,74.22
2023-05-26T21:57:55.763Z,78.63
2023-05-26T22:00:59.242Z,79.23
2023-05-26T22:04:01.350Z,73.25
2023-05-26T22:07:03.345Z,74.62
2023-05-26T22:10:08.309Z,75.13
2023-05-26T22:13:10.263Z,75.53
2023-05-26T22:16:15.111Z,76.47
2023-05-26T22:19:17.336Z,75.42
2023-05-26T22:22:19.121Z,77.30
2023-05-26T22:25:25.044Z,81.69
2023-05-26T22:28:27.003Z,76.65
2023-05-26T22:31:30.463Z,77.62
2023-05-26T22:34:34.820Z,80.29
2023-05-26T22:37:40.138Z,78.61
2023-05-26T22:40:43.571Z,82.40
2023-05-26T22:43:48.382Z,79.88
2023-05-26T22:46:52.838Z,80.31
2023-05-26T22:49:58.015Z,80.37
2023-05-26T22:53:00.227Z,81.38
2023-05-26T22:56:13.527Z,79.35
2023-05-26T22:59:16.828Z,88.32
2023-05-26T23:02:18.671Z,82.07
2023-05-26T23:05:20.502Z,85.92
2023-05-26T23:08:22.959Z,83.68
2023-05-26T23:11:27.357Z,81.84
2023-05-26T23:14:29.161Z,80.85
2023-05-26T23:17:32.401Z,81.68
2023-05-26T23:20:34.783Z,81.78
2023-05-26T23:23:36.993Z,85.85
2023-05-26T23:26:41.315Z,81.81
2023-05-26T23:29:43.066Z,86.74
2023-05-26T23:32:45.228Z,81.55
2023-05-26T23:35:48.755Z,81.96
2023-05-26T23:38:50.893Z,82.24
2023-05-26T23:41:54.575Z,79.77
2023-05-26T23:44:56.519Z,84.35
2023-05-26T23:47:58.607Z,81.40
2023-05-26T23:51:02.734Z,87.10
2023-05-26T23:54:06.953Z,81.89
2023-05-26T23:57:10.656Z,90.47
